sensor_id;sensor_type;location;lat;lon;timestamp;P1;durP1;ratioP1;P2;durP2;ratioP2
44228;SDS011;29904;51.058;5.378;2023-02-28T00:00:51;6.07;;;3.33;;
44228;SDS011;29904;51.058;5.378;2023-02-28T00:03:17;6.43;;;3.70;;
44228;SDS011;29904;51.058;5.378;2023-02-28T00:05:42;5.57;;;3.70;;
44228;SDS011;29904;51.058;5.378;2023-02-28T00:08:08;7.53;;;3.72;;
44228;SDS011;29904;51.058;5.378;2023-02-28T00:10:35;5.47;;;3.50;;
44228;SDS011;29904;51.058;5.378;2023-02-28T00:13:02;5.03;;;3.42;;
44228;SDS011;29904;51.058;5.378;2023-02-28T00:15:30;4.95;;;3.00;;
44228;SDS011;29904;51.058;5.378;2023-02-28T00:17:56;5.32;;;3.50;;
44228;SDS011;29904;51.058;5.378;2023-02-28T00:20:24;5.28;;;3.53;;
44228;SDS011;29904;51.058;5.378;2023-02-28T00:22:51;5.60;;;3.72;;
44228;SDS011;29904;51.058;5.378;2023-02-28T00:25:19;5.25;;;3.83;;
44228;SDS011;29904;51.058;5.378;2023-02-28T00:27:49;6.18;;;3.85;;
44228;SDS011;29904;51.058;5.378;2023-02-28T00:30:19;5.40;;;3.72;;
44228;SDS011;29904;51.058;5.378;2023-02-28T00:32:46;8.77;;;3.85;;
44228;SDS011;29904;51.058;5.378;2023-02-28T00:35:14;6.77;;;3.90;;
44228;SDS011;29904;51.058;5.378;2023-02-28T00:37:40;5.75;;;3.90;;
44228;SDS011;29904;51.058;5.378;2023-02-28T00:40:06;6.13;;;3.90;;
44228;SDS011;29904;51.058;5.378;2023-02-28T00:42:33;5.07;;;3.63;;
44228;SDS011;29904;51.058;5.378;2023-02-28T00:44:59;5.40;;;3.70;;
44228;SDS011;29904;51.058;5.378;2023-02-28T00:47:26;6.97;;;3.73;;
44228;SDS011;29904;51.058;5.378;2023-02-28T00:49:51;4.93;;;3.58;;
44228;SDS011;29904;51.058;5.378;2023-02-28T00:52:17;4.78;;;3.28;;
44228;SDS011;29904;51.058;5.378;2023-02-28T00:54:43;6.07;;;3.77;;
44228;SDS011;29904;51.058;5.378;2023-02-28T00:57:12;5.55;;;3.67;;
44228;SDS011;29904;51.058;5.378;2023-02-28T00:59:38;7.73;;;3.80;;
44228;SDS011;29904;51.058;5.378;2023-02-28T01:02:04;6.30;;;3.80;;
44228;SDS011;29904;51.058;5.378;2023-02-28T01:04:29;4.78;;;3.40;;
44228;SDS011;29904;51.058;5.378;2023-02-28T01:06:55;7.50;;;3.40;;
44228;SDS011;29904;51.058;5.378;2023-02-28T01:09:21;5.45;;;3.65;;
44228;SDS011;29904;51.058;5.378;2023-02-28T01:11:49;5.47;;;3.47;;
44228;SDS011;29904;51.058;5.378;2023-02-28T01:14:15;4.50;;;3.15;;
44228;SDS011;29904;51.058;5.378;2023-02-28T01:16:42;5.82;;;3.35;;
44228;SDS011;29904;51.058;5.378;2023-02-28T01:19:08;5.70;;;3.67;;
44228;SDS011;29904;51.058;5.378;2023-02-28T01:21:34;6.60;;;3.90;;
44228;SDS011;29904;51.058;5.378;2023-02-28T01:24:02;5.53;;;3.78;;
44228;SDS011;29904;51.058;5.378;2023-02-28T01:26:29;6.37;;;3.37;;
44228;SDS011;29904;51.058;5.378;2023-02-28T01:28:56;6.05;;;3.28;;
44228;SDS011;29904;51.058;5.378;2023-02-28T01:31:22;7.22;;;3.85;;
44228;SDS011;29904;51.058;5.378;2023-02-28T01:33:48;6.82;;;4.03;;
44228;SDS011;29904;51.058;5.378;2023-02-28T01:36:15;7.80;;;4.00;;
44228;SDS011;29904;51.058;5.378;2023-02-28T01:38:44;6.70;;;3.85;;
44228;SDS011;29904;51.058;5.378;2023-02-28T01:41:13;6.00;;;4.20;;
44228;SDS011;29904;51.058;5.378;2023-02-28T01:46:10;5.93;;;4.07;;
44228;SDS011;29904;51.058;5.378;2023-02-28T01:51:47;5.72;;;3.60;;
44228;SDS011;29904;51.058;5.378;2023-02-28T01:54:23;6.55;;;3.80;;
44228;SDS011;29904;51.058;5.378;2023-02-28T01:57:01;6.40;;;3.85;;
44228;SDS011;29904;51.058;5.378;2023-02-28T02:02:05;6.45;;;3.90;;
44228;SDS011;29904;51.058;5.378;2023-02-28T02:04:36;6.70;;;3.90;;
44228;SDS011;29904;51.058;5.378;2023-02-28T02:07:09;5.97;;;3.87;;
44228;SDS011;29904;51.058;5.378;2023-02-28T02:09:38;6.27;;;3.70;;
44228;SDS011;29904;51.058;5.378;2023-02-28T02:12:07;5.53;;;3.72;;
44228;SDS011;29904;51.058;5.378;2023-02-28T02:15:08;7.70;;;3.83;;
44228;SDS011;29904;51.058;5.378;2023-02-28T02:17:39;6.30;;;3.70;;
44228;SDS011;29904;51.058;5.378;2023-02-28T02:39:30;6.97;;;4.00;;
44228;SDS011;29904;51.058;5.378;2023-02-28T02:42:02;6.45;;;4.10;;
44228;SDS011;29904;51.058;5.378;2023-02-28T02:44:43;4.93;;;3.60;;
44228;SDS011;29904;51.058;5.378;2023-02-28T02:47:16;6.88;;;4.07;;
44228;SDS011;29904;51.058;5.378;2023-02-28T02:49:51;6.20;;;3.50;;
44228;SDS011;29904;51.058;5.378;2023-02-28T02:52:21;6.47;;;4.13;;
44228;SDS011;29904;51.058;5.378;2023-02-28T02:54:50;6.60;;;4.30;;
44228;SDS011;29904;51.058;5.378;2023-02-28T02:57:21;6.85;;;4.22;;
44228;SDS011;29904;51.058;5.378;2023-02-28T02:59:50;5.90;;;3.85;;
44228;SDS011;29904;51.058;5.378;2023-02-28T03:02:18;8.65;;;4.90;;
44228;SDS011;29904;51.058;5.378;2023-02-28T03:04:49;6.85;;;4.30;;
44228;SDS011;29904;51.058;5.378;2023-02-28T03:07:18;8.02;;;4.30;;
44228;SDS011;29904;51.058;5.378;2023-02-28T03:09:51;7.15;;;4.45;;
44228;SDS011;29904;51.058;5.378;2023-02-28T03:12:19;7.22;;;4.25;;
44228;SDS011;29904;51.058;5.378;2023-02-28T03:15:01;7.18;;;4.50;;
44228;SDS011;29904;51.058;5.378;2023-02-28T03:23:38;7.78;;;4.50;;
44228;SDS011;29904;51.058;5.378;2023-02-28T03:26:21;6.57;;;4.68;;
44228;SDS011;29904;51.058;5.378;2023-02-28T03:31:41;8.02;;;4.88;;
44228;SDS011;29904;51.058;5.378;2023-02-28T03:34:21;7.93;;;4.90;;
44228;SDS011;29904;51.058;5.378;2023-02-28T03:37:10;7.30;;;4.80;;
44228;SDS011;29904;51.058;5.378;2023-02-28T03:39:51;7.35;;;4.75;;
44228;SDS011;29904;51.058;5.378;2023-02-28T03:42:25;7.50;;;4.55;;
44228;SDS011;29904;51.058;5.378;2023-02-28T03:44:57;8.35;;;4.95;;
44228;SDS011;29904;51.058;5.378;2023-02-28T03:47:31;8.10;;;4.90;;
44228;SDS011;29904;51.058;5.378;2023-02-28T03:52:47;9.38;;;4.93;;
44228;SDS011;29904;51.058;5.378;2023-02-28T03:55:27;7.27;;;4.93;;
44228;SDS011;29904;51.058;5.378;2023-02-28T04:00:43;8.52;;;5.50;;
44228;SDS011;29904;51.058;5.378;2023-02-28T04:03:13;7.90;;;4.88;;
44228;SDS011;29904;51.058;5.378;2023-02-28T04:05:51;7.10;;;4.82;;
44228;SDS011;29904;51.058;5.378;2023-02-28T04:08:19;7.55;;;4.90;;
44228;SDS011;29904;51.058;5.378;2023-02-28T04:10:47;7.75;;;4.90;;
44228;SDS011;29904;51.058;5.378;2023-02-28T04:13:18;8.23;;;4.90;;
44228;SDS011;29904;51.058;5.378;2023-02-28T04:15:43;9.23;;;5.20;;
44228;SDS011;29904;51.058;5.378;2023-02-28T04:18:09;7.72;;;5.00;;
44228;SDS011;29904;51.058;5.378;2023-02-28T04:20:35;8.00;;;5.07;;
44228;SDS011;29904;51.058;5.378;2023-02-28T04:23:01;7.28;;;5.20;;
44228;SDS011;29904;51.058;5.378;2023-02-28T04:25:27;7.18;;;4.60;;
44228;SDS011;29904;51.058;5.378;2023-02-28T04:27:52;8.33;;;5.00;;
44228;SDS011;29904;51.058;5.378;2023-02-28T04:30:18;8.00;;;5.10;;
44228;SDS011;29904;51.058;5.378;2023-02-28T04:32:46;7.38;;;4.80;;
44228;SDS011;29904;51.058;5.378;2023-02-28T04:35:11;6.43;;;4.63;;
44228;SDS011;29904;51.058;5.378;2023-02-28T04:37:37;7.43;;;4.90;;
44228;SDS011;29904;51.058;5.378;2023-02-28T04:40:03;6.75;;;4.70;;
44228;SDS011;29904;51.058;5.378;2023-02-28T04:42:29;8.00;;;5.35;;
44228;SDS011;29904;51.058;5.378;2023-02-28T04:45:01;8.25;;;5.35;;
44228;SDS011;29904;51.058;5.378;2023-02-28T04:47:28;7.88;;;4.82;;
44228;SDS011;29904;51.058;5.378;2023-02-28T04:49:54;7.47;;;4.50;;
44228;SDS011;29904;51.058;5.378;2023-02-28T04:52:20;8.80;;;4.60;;
44228;SDS011;29904;51.058;5.378;2023-02-28T04:54:48;8.00;;;4.72;;
44228;SDS011;29904;51.058;5.378;2023-02-28T04:57:16;7.60;;;4.65;;
44228;SDS011;29904;51.058;5.378;2023-02-28T04:59:41;8.83;;;5.10;;
44228;SDS011;29904;51.058;5.378;2023-02-28T05:02:07;7.07;;;4.50;;
44228;SDS011;29904;51.058;5.378;2023-02-28T05:04:35;5.55;;;4.30;;
44228;SDS011;29904;51.058;5.378;2023-02-28T05:07:02;7.35;;;5.00;;
44228;SDS011;29904;51.058;5.378;2023-02-28T05:09:28;7.88;;;4.85;;
44228;SDS011;29904;51.058;5.378;2023-02-28T05:11:54;8.07;;;4.87;;
44228;SDS011;29904;51.058;5.378;2023-02-28T05:14:20;7.10;;;4.57;;
44228;SDS011;29904;51.058;5.378;2023-02-28T05:16:46;6.07;;;4.53;;
44228;SDS011;29904;51.058;5.378;2023-02-28T05:19:13;7.03;;;4.60;;
44228;SDS011;29904;51.058;5.378;2023-02-28T05:21:52;7.03;;;4.80;;
44228;SDS011;29904;51.058;5.378;2023-02-28T05:24:19;8.57;;;4.68;;
44228;SDS011;29904;51.058;5.378;2023-02-28T05:26:48;8.52;;;4.50;;
44228;SDS011;29904;51.058;5.378;2023-02-28T05:29:15;7.25;;;4.55;;
44228;SDS011;29904;51.058;5.378;2023-02-28T05:31:44;6.88;;;4.60;;
44228;SDS011;29904;51.058;5.378;2023-02-28T05:34:10;7.13;;;5.00;;
44228;SDS011;29904;51.058;5.378;2023-02-28T05:36:37;9.07;;;5.23;;
44228;SDS011;29904;51.058;5.378;2023-02-28T05:39:05;8.23;;;5.07;;
44228;SDS011;29904;51.058;5.378;2023-02-28T05:41:32;7.95;;;4.93;;
44228;SDS011;29904;51.058;5.378;2023-02-28T05:44:00;7.53;;;5.05;;
44228;SDS011;29904;51.058;5.378;2023-02-28T05:46:26;9.05;;;6.03;;
44228;SDS011;29904;51.058;5.378;2023-02-28T05:48:51;8.32;;;5.80;;
44228;SDS011;29904;51.058;5.378;2023-02-28T05:51:17;8.27;;;5.73;;
44228;SDS011;29904;51.058;5.378;2023-02-28T05:53:43;10.70;;;6.20;;
44228;SDS011;29904;51.058;5.378;2023-02-28T05:56:09;10.02;;;6.22;;
44228;SDS011;29904;51.058;5.378;2023-02-28T05:58:36;10.07;;;5.73;;
44228;SDS011;29904;51.058;5.378;2023-02-28T06:03:47;8.60;;;5.80;;
44228;SDS011;29904;51.058;5.378;2023-02-28T06:06:13;8.07;;;5.68;;
44228;SDS011;29904;51.058;5.378;2023-02-28T06:08:39;7.93;;;5.50;;
44228;SDS011;29904;51.058;5.378;2023-02-28T06:11:05;10.05;;;5.43;;
44228;SDS011;29904;51.058;5.378;2023-02-28T06:13:31;9.73;;;5.47;;
44228;SDS011;29904;51.058;5.378;2023-02-28T06:16:00;8.80;;;5.23;;
44228;SDS011;29904;51.058;5.378;2023-02-28T06:18:26;8.32;;;5.43;;
44228;SDS011;29904;51.058;5.378;2023-02-28T06:20:52;8.30;;;5.28;;
44228;SDS011;29904;51.058;5.378;2023-02-28T06:23:19;9.55;;;5.50;;
44228;SDS011;29904;51.058;5.378;2023-02-28T06:25:47;6.57;;;5.03;;
44228;SDS011;29904;51.058;5.378;2023-02-28T06:28:14;10.68;;;6.05;;
44228;SDS011;29904;51.058;5.378;2023-02-28T06:30:40;9.98;;;5.93;;
44228;SDS011;29904;51.058;5.378;2023-02-28T06:33:05;8.52;;;5.25;;
44228;SDS011;29904;51.058;5.378;2023-02-28T06:35:31;8.13;;;5.13;;
44228;SDS011;29904;51.058;5.378;2023-02-28T06:37:57;8.57;;;5.38;;
44228;SDS011;29904;51.058;5.378;2023-02-28T06:40:23;9.23;;;5.40;;
44228;SDS011;29904;51.058;5.378;2023-02-28T06:42:48;7.77;;;5.37;;
44228;SDS011;29904;51.058;5.378;2023-02-28T06:45:14;8.25;;;5.13;;
44228;SDS011;29904;51.058;5.378;2023-02-28T06:47:40;8.45;;;5.00;;
44228;SDS011;29904;51.058;5.378;2023-02-28T06:50:07;8.40;;;4.75;;
44228;SDS011;29904;51.058;5.378;2023-02-28T06:52:36;8.40;;;4.80;;
44228;SDS011;29904;51.058;5.378;2023-02-28T06:55:03;8.43;;;4.68;;
44228;SDS011;29904;51.058;5.378;2023-02-28T06:57:32;7.25;;;4.50;;
44228;SDS011;29904;51.058;5.378;2023-02-28T07:00:01;7.50;;;4.60;;
44228;SDS011;29904;51.058;5.378;2023-02-28T07:02:33;9.55;;;4.72;;
44228;SDS011;29904;51.058;5.378;2023-02-28T07:05:02;6.05;;;4.00;;
44228;SDS011;29904;51.058;5.378;2023-02-28T07:07:29;6.78;;;4.45;;
44228;SDS011;29904;51.058;5.378;2023-02-28T07:09:55;6.65;;;3.95;;
44228;SDS011;29904;51.058;5.378;2023-02-28T07:12:21;6.55;;;4.00;;
44228;SDS011;29904;51.058;5.378;2023-02-28T07:14:49;5.82;;;4.03;;
44228;SDS011;29904;51.058;5.378;2023-02-28T07:17:15;6.30;;;3.90;;
44228;SDS011;29904;51.058;5.378;2023-02-28T07:19:41;7.82;;;4.53;;
44228;SDS011;29904;51.058;5.378;2023-02-28T07:22:07;5.95;;;4.00;;
44228;SDS011;29904;51.058;5.378;2023-02-28T07:24:32;10.27;;;4.15;;
44228;SDS011;29904;51.058;5.378;2023-02-28T07:26:58;5.50;;;3.85;;
44228;SDS011;29904;51.058;5.378;2023-02-28T07:29:26;6.45;;;3.88;;
44228;SDS011;29904;51.058;5.378;2023-02-28T07:31:52;7.07;;;3.83;;
44228;SDS011;29904;51.058;5.378;2023-02-28T07:34:18;6.63;;;4.30;;
44228;SDS011;29904;51.058;5.378;2023-02-28T07:36:44;6.10;;;3.83;;
44228;SDS011;29904;51.058;5.378;2023-02-28T07:39:10;5.78;;;4.05;;
44228;SDS011;29904;51.058;5.378;2023-02-28T07:41:38;5.68;;;3.70;;
44228;SDS011;29904;51.058;5.378;2023-02-28T07:44:11;7.40;;;3.75;;
44228;SDS011;29904;51.058;5.378;2023-02-28T07:46:37;7.10;;;4.07;;
44228;SDS011;29904;51.058;5.378;2023-02-28T07:49:05;6.07;;;3.88;;
44228;SDS011;29904;51.058;5.378;2023-02-28T07:51:31;7.30;;;4.07;;
44228;SDS011;29904;51.058;5.378;2023-02-28T07:53:57;6.90;;;4.35;;
44228;SDS011;29904;51.058;5.378;2023-02-28T07:56:23;5.38;;;4.05;;
44228;SDS011;29904;51.058;5.378;2023-02-28T07:58:48;6.87;;;4.20;;
44228;SDS011;29904;51.058;5.378;2023-02-28T08:01:14;7.03;;;4.03;;
44228;SDS011;29904;51.058;5.378;2023-02-28T08:03:43;7.57;;;4.18;;
44228;SDS011;29904;51.058;5.378;2023-02-28T08:06:15;6.27;;;3.90;;
44228;SDS011;29904;51.058;5.378;2023-02-28T08:08:46;6.27;;;4.00;;
44228;SDS011;29904;51.058;5.378;2023-02-28T08:11:12;6.40;;;4.10;;
44228;SDS011;29904;51.058;5.378;2023-02-28T08:13:38;7.07;;;4.10;;
44228;SDS011;29904;51.058;5.378;2023-02-28T08:16:07;7.75;;;3.80;;
44228;SDS011;29904;51.058;5.378;2023-02-28T08:18:33;7.80;;;4.10;;
44228;SDS011;29904;51.058;5.378;2023-02-28T08:20:59;6.70;;;3.70;;
44228;SDS011;29904;51.058;5.378;2023-02-28T08:23:34;6.50;;;3.60;;
44228;SDS011;29904;51.058;5.378;2023-02-28T08:26:00;5.25;;;3.40;;
44228;SDS011;29904;51.058;5.378;2023-02-28T08:28:26;5.63;;;3.40;;
44228;SDS011;29904;51.058;5.378;2023-02-28T08:30:52;5.68;;;3.55;;
44228;SDS011;29904;51.058;5.378;2023-02-28T08:33:18;6.70;;;3.38;;
44228;SDS011;29904;51.058;5.378;2023-02-28T08:35:44;4.93;;;3.00;;
44228;SDS011;29904;51.058;5.378;2023-02-28T08:38:10;6.30;;;3.20;;
44228;SDS011;29904;51.058;5.378;2023-02-28T08:40:35;6.70;;;3.30;;
44228;SDS011;29904;51.058;5.378;2023-02-28T08:43:01;4.68;;;3.00;;
44228;SDS011;29904;51.058;5.378;2023-02-28T08:45:27;5.85;;;3.13;;
44228;SDS011;29904;51.058;5.378;2023-02-28T08:47:59;5.25;;;2.70;;
44228;SDS011;29904;51.058;5.378;2023-02-28T08:50:25;4.75;;;2.90;;
44228;SDS011;29904;51.058;5.378;2023-02-28T08:52:51;6.27;;;2.93;;
44228;SDS011;29904;51.058;5.378;2023-02-28T08:55:19;6.15;;;3.10;;
44228;SDS011;29904;51.058;5.378;2023-02-28T08:57:44;5.03;;;2.92;;
44228;SDS011;29904;51.058;5.378;2023-02-28T09:00:10;5.53;;;3.08;;
44228;SDS011;29904;51.058;5.378;2023-02-28T09:02:39;5.38;;;2.70;;
44228;SDS011;29904;51.058;5.378;2023-02-28T09:05:05;4.45;;;2.72;;
44228;SDS011;29904;51.058;5.378;2023-02-28T09:07:31;5.20;;;2.75;;
44228;SDS011;29904;51.058;5.378;2023-02-28T09:09:57;5.60;;;2.58;;
44228;SDS011;29904;51.058;5.378;2023-02-28T09:12:23;4.70;;;2.60;;
44228;SDS011;29904;51.058;5.378;2023-02-28T09:14:51;3.85;;;2.50;;
44228;SDS011;29904;51.058;5.378;2023-02-28T09:17:18;3.55;;;2.40;;
44228;SDS011;29904;51.058;5.378;2023-02-28T09:19:47;4.03;;;2.40;;
44228;SDS011;29904;51.058;5.378;2023-02-28T09:22:14;4.30;;;2.30;;
44228;SDS011;29904;51.058;5.378;2023-02-28T09:24:40;3.72;;;2.30;;
44228;SDS011;29904;51.058;5.378;2023-02-28T09:27:05;3.53;;;2.13;;
44228;SDS011;29904;51.058;5.378;2023-02-28T09:29:32;3.45;;;2.40;;
44228;SDS011;29904;51.058;5.378;2023-02-28T09:31:58;4.00;;;2.20;;
44228;SDS011;29904;51.058;5.378;2023-02-28T09:34:25;4.90;;;2.25;;
44228;SDS011;29904;51.058;5.378;2023-02-28T09:36:51;4.80;;;2.30;;
44228;SDS011;29904;51.058;5.378;2023-02-28T09:39:22;3.30;;;2.13;;
44228;SDS011;29904;51.058;5.378;2023-02-28T09:41:50;3.53;;;2.20;;
44228;SDS011;29904;51.058;5.378;2023-02-28T09:50:03;3.70;;;2.00;;
44228;SDS011;29904;51.058;5.378;2023-02-28T09:52:38;3.30;;;1.70;;
44228;SDS011;29904;51.058;5.378;2023-02-28T09:55:19;2.80;;;1.80;;
44228;SDS011;29904;51.058;5.378;2023-02-28T09:57:50;3.42;;;1.73;;
44228;SDS011;29904;51.058;5.378;2023-02-28T10:05:41;4.80;;;2.10;;
44228;SDS011;29904;51.058;5.378;2023-02-28T10:11:08;9.70;;;3.50;;
44228;SDS011;29904;51.058;5.378;2023-02-28T10:19:28;4.50;;;2.27;;
44228;SDS011;29904;51.058;5.378;2023-02-28T10:24:59;8.50;;;3.33;;
44228;SDS011;29904;51.058;5.378;2023-02-28T10:27:31;4.00;;;2.60;;
44228;SDS011;29904;51.058;5.378;2023-02-28T10:30:00;3.55;;;2.22;;
44228;SDS011;29904;51.058;5.378;2023-02-28T10:32:33;6.50;;;3.90;;
44228;SDS011;29904;51.058;5.378;2023-02-28T10:37:47;5.35;;;2.70;;
44228;SDS011;29904;51.058;5.378;2023-02-28T10:40:25;3.15;;;1.52;;
44228;SDS011;29904;51.058;5.378;2023-02-28T10:43:04;2.33;;;1.70;;
44228;SDS011;29904;51.058;5.378;2023-02-28T10:45:52;1.40;;;1.02;;
44228;SDS011;29904;51.058;5.378;2023-02-28T10:48:33;1.70;;;1.10;;
44228;SDS011;29904;51.058;5.378;2023-02-28T10:51:22;1.58;;;1.20;;
44228;SDS011;29904;51.058;5.378;2023-02-28T10:53:51;1.50;;;1.00;;
44228;SDS011;29904;51.058;5.378;2023-02-28T10:56:20;1.60;;;0.90;;
44228;SDS011;29904;51.058;5.378;2023-02-28T11:01:20;1.80;;;1.20;;
44228;SDS011;29904;51.058;5.378;2023-02-28T11:03:49;1.77;;;1.50;;
44228;SDS011;29904;51.058;5.378;2023-02-28T11:06:17;2.80;;;1.75;;
44228;SDS011;29904;51.058;5.378;2023-02-28T11:08:53;2.83;;;1.20;;
44228;SDS011;29904;51.058;5.378;2023-02-28T11:11:30;1.65;;;1.40;;
44228;SDS011;29904;51.058;5.378;2023-02-28T11:14:07;2.25;;;1.50;;
44228;SDS011;29904;51.058;5.378;2023-02-28T11:16:47;2.20;;;1.40;;
44228;SDS011;29904;51.058;5.378;2023-02-28T11:22:17;1.40;;;1.23;;
44228;SDS011;29904;51.058;5.378;2023-02-28T11:24:50;4.78;;;1.50;;
44228;SDS011;29904;51.058;5.378;2023-02-28T11:27:25;3.28;;;1.50;;
44228;SDS011;29904;51.058;5.378;2023-02-28T11:29:54;3.70;;;1.60;;
44228;SDS011;29904;51.058;5.378;2023-02-28T11:32:20;3.00;;;1.30;;
44228;SDS011;29904;51.058;5.378;2023-02-28T11:34:48;2.08;;;1.40;;
44228;SDS011;29904;51.058;5.378;2023-02-28T11:37:33;2.83;;;1.70;;
44228;SDS011;29904;51.058;5.378;2023-02-28T11:39:59;2.63;;;1.70;;
44228;SDS011;29904;51.058;5.378;2023-02-28T11:42:35;2.50;;;1.67;;
44228;SDS011;29904;51.058;5.378;2023-02-28T11:45:56;2.17;;;1.40;;
44228;SDS011;29904;51.058;5.378;2023-02-28T11:50:58;2.83;;;1.35;;
44228;SDS011;29904;51.058;5.378;2023-02-28T11:53:54;2.97;;;1.48;;
44228;SDS011;29904;51.058;5.378;2023-02-28T11:56:49;1.85;;;1.38;;
44228;SDS011;29904;51.058;5.378;2023-02-28T11:59:26;2.67;;;1.50;;
44228;SDS011;29904;51.058;5.378;2023-02-28T12:13:21;2.67;;;1.60;;
44228;SDS011;29904;51.058;5.378;2023-02-28T12:21:48;4.30;;;1.50;;
44228;SDS011;29904;51.058;5.378;2023-02-28T12:24:39;2.53;;;1.50;;
44228;SDS011;29904;51.058;5.378;2023-02-28T12:27:29;1.95;;;1.50;;
44228;SDS011;29904;51.058;5.378;2023-02-28T12:30:15;3.35;;;1.80;;
44228;SDS011;29904;51.058;5.378;2023-02-28T12:33:09;1.88;;;1.52;;
44228;SDS011;29904;51.058;5.378;2023-02-28T12:35:47;1.80;;;1.50;;
44228;SDS011;29904;51.058;5.378;2023-02-28T12:38:27;2.70;;;1.67;;
44228;SDS011;29904;51.058;5.378;2023-02-28T12:41:03;3.15;;;1.75;;
44228;SDS011;29904;51.058;5.378;2023-02-28T12:43:37;3.00;;;1.77;;
44228;SDS011;29904;51.058;5.378;2023-02-28T12:46:09;3.30;;;1.83;;
44228;SDS011;29904;51.058;5.378;2023-02-28T12:48:46;3.58;;;1.80;;
44228;SDS011;29904;51.058;5.378;2023-02-28T12:51:17;3.20;;;2.10;;
44228;SDS011;29904;51.058;5.378;2023-02-28T12:53:54;2.50;;;1.80;;
44228;SDS011;29904;51.058;5.378;2023-02-28T12:56:32;2.60;;;1.70;;
44228;SDS011;29904;51.058;5.378;2023-02-28T12:59:03;2.67;;;1.88;;
44228;SDS011;29904;51.058;5.378;2023-02-28T13:10:00;2.83;;;1.80;;
44228;SDS011;29904;51.058;5.378;2023-02-28T13:12:29;3.65;;;1.65;;
44228;SDS011;29904;51.058;5.378;2023-02-28T13:15:02;4.03;;;1.98;;
44228;SDS011;29904;51.058;5.378;2023-02-28T13:17:48;2.30;;;1.75;;
44228;SDS011;29904;51.058;5.378;2023-02-28T13:22:47;2.28;;;1.55;;
44228;SDS011;29904;51.058;5.378;2023-02-28T13:27:58;2.70;;;1.73;;
44228;SDS011;29904;51.058;5.378;2023-02-28T13:36:06;3.22;;;1.63;;
44228;SDS011;29904;51.058;5.378;2023-02-28T13:38:39;2.55;;;1.80;;
44228;SDS011;29904;51.058;5.378;2023-02-28T13:46:25;2.78;;;2.13;;
44228;SDS011;29904;51.058;5.378;2023-02-28T13:48:52;2.53;;;2.10;;
44228;SDS011;29904;51.058;5.378;2023-02-28T13:51:39;2.88;;;1.98;;
44228;SDS011;29904;51.058;5.378;2023-02-28T14:05:30;7.03;;;3.53;;
44228;SDS011;29904;51.058;5.378;2023-02-28T14:07:59;4.83;;;2.40;;
44228;SDS011;29904;51.058;5.378;2023-02-28T14:10:51;3.20;;;1.80;;
44228;SDS011;29904;51.058;5.378;2023-02-28T14:13:42;3.08;;;2.13;;
44228;SDS011;29904;51.058;5.378;2023-02-28T14:16:13;4.00;;;2.03;;
44228;SDS011;29904;51.058;5.378;2023-02-28T14:21:36;5.55;;;3.00;;
44228;SDS011;29904;51.058;5.378;2023-02-28T14:30:19;3.30;;;1.80;;
44228;SDS011;29904;51.058;5.378;2023-02-28T14:33:33;3.08;;;1.58;;
44228;SDS011;29904;51.058;5.378;2023-02-28T14:36:26;3.13;;;2.07;;
44228;SDS011;29904;51.058;5.378;2023-02-28T14:39:07;3.35;;;2.13;;
44228;SDS011;29904;51.058;5.378;2023-02-28T14:41:39;3.00;;;2.00;;
44228;SDS011;29904;51.058;5.378;2023-02-28T14:44:16;4.03;;;1.70;;
44228;SDS011;29904;51.058;5.378;2023-02-28T14:46:49;2.53;;;1.60;;
44228;SDS011;29904;51.058;5.378;2023-02-28T14:51:46;3.15;;;1.80;;
44228;SDS011;29904;51.058;5.378;2023-02-28T14:54:15;2.92;;;1.67;;
44228;SDS011;29904;51.058;5.378;2023-02-28T14:56:48;2.97;;;1.83;;
44228;SDS011;29904;51.058;5.378;2023-02-28T14:59:25;2.50;;;1.67;;
44228;SDS011;29904;51.058;5.378;2023-02-28T15:04:53;2.80;;;1.70;;
44228;SDS011;29904;51.058;5.378;2023-02-28T15:07:19;2.80;;;1.60;;
44228;SDS011;29904;51.058;5.378;2023-02-28T15:10:06;2.75;;;1.80;;
44228;SDS011;29904;51.058;5.378;2023-02-28T15:12:34;4.90;;;1.85;;
44228;SDS011;29904;51.058;5.378;2023-02-28T15:15:01;3.30;;;1.75;;
44228;SDS011;29904;51.058;5.378;2023-02-28T15:17:29;3.25;;;1.90;;
44228;SDS011;29904;51.058;5.378;2023-02-28T15:19:55;2.75;;;1.77;;
44228;SDS011;29904;51.058;5.378;2023-02-28T15:22:27;2.60;;;1.70;;
44228;SDS011;29904;51.058;5.378;2023-02-28T15:24:57;4.35;;;2.30;;
44228;SDS011;29904;51.058;5.378;2023-02-28T15:27:25;3.67;;;2.08;;
44228;SDS011;29904;51.058;5.378;2023-02-28T15:29:58;3.53;;;2.30;;
44228;SDS011;29904;51.058;5.378;2023-02-28T15:35:18;2.70;;;1.75;;
44228;SDS011;29904;51.058;5.378;2023-02-28T15:40:53;2.20;;;1.63;;
44228;SDS011;29904;51.058;5.378;2023-02-28T15:51:00;3.55;;;2.03;;
44228;SDS011;29904;51.058;5.378;2023-02-28T15:53:32;3.20;;;2.00;;
44228;SDS011;29904;51.058;5.378;2023-02-28T15:56:18;3.33;;;2.05;;
44228;SDS011;29904;51.058;5.378;2023-02-28T15:58:52;2.83;;;1.88;;
44228;SDS011;29904;51.058;5.378;2023-02-28T16:01:26;2.73;;;2.00;;
44228;SDS011;29904;51.058;5.378;2023-02-28T16:03:55;5.10;;;2.00;;
44228;SDS011;29904;51.058;5.378;2023-02-28T16:06:26;3.42;;;2.10;;
44228;SDS011;29904;51.058;5.378;2023-02-28T16:09:11;2.40;;;1.83;;
44228;SDS011;29904;51.058;5.378;2023-02-28T16:11:48;4.22;;;2.00;;
44228;SDS011;29904;51.058;5.378;2023-02-28T16:14:19;3.58;;;2.00;;
44228;SDS011;29904;51.058;5.378;2023-02-28T16:16:50;3.08;;;1.95;;
44228;SDS011;29904;51.058;5.378;2023-02-28T16:19:18;5.20;;;2.03;;
44228;SDS011;29904;51.058;5.378;2023-02-28T16:21:45;4.10;;;2.00;;
44228;SDS011;29904;51.058;5.378;2023-02-28T16:24:11;3.85;;;2.03;;
44228;SDS011;29904;51.058;5.378;2023-02-28T16:26:37;2.88;;;2.03;;
44228;SDS011;29904;51.058;5.378;2023-02-28T16:29:06;3.08;;;2.10;;
44228;SDS011;29904;51.058;5.378;2023-02-28T16:31:35;3.30;;;2.20;;
44228;SDS011;29904;51.058;5.378;2023-02-28T16:34:03;5.38;;;2.40;;
44228;SDS011;29904;51.058;5.378;2023-02-28T16:36:29;3.17;;;2.30;;
44228;SDS011;29904;51.058;5.378;2023-02-28T16:38:56;5.22;;;2.60;;
44228;SDS011;29904;51.058;5.378;2023-02-28T16:41:23;4.57;;;2.70;;
44228;SDS011;29904;51.058;5.378;2023-02-28T16:43:51;4.05;;;2.20;;
44228;SDS011;29904;51.058;5.378;2023-02-28T16:46:19;5.78;;;3.20;;
44228;SDS011;29904;51.058;5.378;2023-02-28T16:48:45;4.18;;;2.65;;
44228;SDS011;29904;51.058;5.378;2023-02-28T16:51:16;8.47;;;4.63;;
44228;SDS011;29904;51.058;5.378;2023-02-28T16:53:43;7.72;;;3.55;;
44228;SDS011;29904;51.058;5.378;2023-02-28T16:56:17;23.23;;;9.30;;
44228;SDS011;29904;51.058;5.378;2023-02-28T16:58:49;29.92;;;12.45;;
44228;SDS011;29904;51.058;5.378;2023-02-28T17:01:16;17.80;;;8.40;;
44228;SDS011;29904;51.058;5.378;2023-02-28T17:03:46;14.50;;;6.85;;
44228;SDS011;29904;51.058;5.378;2023-02-28T17:06:19;11.65;;;6.25;;
44228;SDS011;29904;51.058;5.378;2023-02-28T17:08:49;7.82;;;5.03;;
44228;SDS011;29904;51.058;5.378;2023-02-28T17:11:17;5.38;;;3.40;;
44228;SDS011;29904;51.058;5.378;2023-02-28T17:13:45;4.05;;;2.78;;
44228;SDS011;29904;51.058;5.378;2023-02-28T17:16:28;3.97;;;2.60;;
44228;SDS011;29904;51.058;5.378;2023-02-28T17:18:58;4.88;;;2.78;;
44228;SDS011;29904;51.058;5.378;2023-02-28T17:21:26;4.55;;;2.70;;
44228;SDS011;29904;51.058;5.378;2023-02-28T17:23:52;4.22;;;2.30;;
44228;SDS011;29904;51.058;5.378;2023-02-28T17:26:21;4.57;;;2.50;;
44228;SDS011;29904;51.058;5.378;2023-02-28T17:28:49;3.08;;;2.22;;
44228;SDS011;29904;51.058;5.378;2023-02-28T17:31:16;4.90;;;2.50;;
44228;SDS011;29904;51.058;5.378;2023-02-28T17:33:43;4.00;;;2.20;;
44228;SDS011;29904;51.058;5.378;2023-02-28T17:36:30;3.75;;;2.30;;
44228;SDS011;29904;51.058;5.378;2023-02-28T17:38:55;4.97;;;3.10;;
44228;SDS011;29904;51.058;5.378;2023-02-28T17:41:23;5.75;;;3.50;;
44228;SDS011;29904;51.058;5.378;2023-02-28T17:43:55;6.47;;;4.30;;
44228;SDS011;29904;51.058;5.378;2023-02-28T17:46:22;8.73;;;5.30;;